createdAt,value
2022-11-09T00:01:29.443Z,4.53
2022-11-09T00:04:01.728Z,4.40
2022-11-09T00:06:29.928Z,4.35
2022-11-09T00:09:01.321Z,4.88
2022-11-09T00:11:31.527Z,3.60
2022-11-09T00:13:58.887Z,4.05
2022-11-09T00:16:26.215Z,4.72
2022-11-09T00:18:53.918Z,4.07
2022-11-09T00:21:24.479Z,4.93
2022-11-09T00:23:53.049Z,4.28
2022-11-09T00:26:21.475Z,4.30
2022-11-09T00:28:49.697Z,4.40
2022-11-09T00:31:20.026Z,4.03
2022-11-09T00:33:52.284Z,4.60
2022-11-09T00:36:20.439Z,4.82
2022-11-09T00:38:53.064Z,5.47
2022-11-09T00:41:21.510Z,4.32
2022-11-09T00:43:49.830Z,5.10
2022-11-09T00:46:17.673Z,4.50
2022-11-09T00:48:45.657Z,4.53
2022-11-09T00:51:13.256Z,4.65
2022-11-09T00:53:42.786Z,4.75
2022-11-09T00:56:12.531Z,4.72
2022-11-09T00:58:41.154Z,4.38
2022-11-09T01:01:17.501Z,4.78
2022-11-09T01:03:46.241Z,5.75
2022-11-09T01:06:22.233Z,4.47
2022-11-09T01:08:50.450Z,5.90
2022-11-09T01:11:19.579Z,5.18
2022-11-09T01:13:47.219Z,5.30
2022-11-09T01:16:18.536Z,4.90
2022-11-09T01:18:46.704Z,4.10
2022-11-09T01:21:15.524Z,4.53
2022-11-09T01:23:43.072Z,5.20
2022-11-09T01:26:13.127Z,6.60
2022-11-09T01:28:40.996Z,4.82
2022-11-09T01:31:11.887Z,4.97
2022-11-09T01:33:39.339Z,5.25
2022-11-09T01:36:12.535Z,4.75
2022-11-09T01:38:40.124Z,4.90
2022-11-09T01:41:13.568Z,5.13
2022-11-09T01:43:40.907Z,5.43
2022-11-09T01:49:59.843Z,4.45
2022-11-09T01:52:39.466Z,5.07
2022-11-09T01:55:13.534Z,5.60
2022-11-09T01:57:49.937Z,5.40
2022-11-09T02:00:17.894Z,4.75
2022-11-09T02:02:52.542Z,5.65
2022-11-09T02:05:26.545Z,6.05
2022-11-09T02:07:56.454Z,5.28
2022-11-09T02:11:04.697Z,5.03
2022-11-09T02:13:33.932Z,5.80
2022-11-09T02:16:08.401Z,4.95
2022-11-09T02:18:39.619Z,5.55
2022-11-09T02:21:07.050Z,6.17
2022-11-09T02:23:34.493Z,5.88
2022-11-09T02:26:09.583Z,5.10
2022-11-09T02:28:39.433Z,5.55
2022-11-09T02:31:10.796Z,5.75
2022-11-09T02:33:50.928Z,5.65
2022-11-09T02:36:18.271Z,5.30
2022-11-09T02:38:46.430Z,5.45
2022-11-09T02:41:17.536Z,4.88
2022-11-09T02:43:45.105Z,5.30
2022-11-09T02:46:12.485Z,4.97
2022-11-09T02:48:41.367Z,5.00
2022-11-09T02:51:08.731Z,4.45
2022-11-09T02:53:36.299Z,4.55
2022-11-09T02:56:04.063Z,5.70
2022-11-09T02:58:31.555Z,5.50
2022-11-09T03:00:59.051Z,4.55
2022-11-09T03:03:26.391Z,5.03
2022-11-09T03:05:53.763Z,6.75
2022-11-09T03:08:21.405Z,5.10
2022-11-09T03:10:48.868Z,6.05
2022-11-09T03:13:16.498Z,6.13
2022-11-09T03:15:43.969Z,6.00
2022-11-09T03:18:11.322Z,5.38
2022-11-09T03:20:38.655Z,5.20
2022-11-09T03:23:06.039Z,5.40
2022-11-09T03:25:34.909Z,5.35
2022-11-09T03:28:05.413Z,4.82
2022-11-09T03:30:33.690Z,5.20
2022-11-09T03:33:10.273Z,5.00
2022-11-09T03:35:38.745Z,5.25
2022-11-09T03:38:06.689Z,5.45
2022-11-09T03:40:34.247Z,4.93
2022-11-09T03:43:02.158Z,4.85
2022-11-09T03:45:29.920Z,5.68
2022-11-09T03:48:00.171Z,5.68
2022-11-09T03:50:29.547Z,5.10
2022-11-09T03:52:58.253Z,6.07
2022-11-09T03:55:26.334Z,5.55
2022-11-09T03:57:53.815Z,4.88
2022-11-09T04:00:23.106Z,5.60
2022-11-09T04:02:50.790Z,5.15
2022-11-09T04:05:18.472Z,5.57
2022-11-09T04:07:53.479Z,4.93
2022-11-09T04:10:21.957Z,4.93
2022-11-09T04:12:49.660Z,4.88
2022-11-09T04:15:17.665Z,4.40
2022-11-09T04:17:45.193Z,4.93
2022-11-09T04:20:12.866Z,4.13
2022-11-09T04:22:40.306Z,4.40
2022-11-09T04:25:08.141Z,4.63
2022-11-09T04:27:35.399Z,5.03
2022-11-09T04:30:02.732Z,5.03
2022-11-09T04:32:30.077Z,4.78
2022-11-09T04:34:57.430Z,4.95
2022-11-09T04:37:24.721Z,4.72
2022-11-09T04:39:52.042Z,4.90
2022-11-09T04:42:19.326Z,5.03
2022-11-09T04:44:46.657Z,4.82
2022-11-09T04:47:13.971Z,5.72
2022-11-09T04:49:41.310Z,4.97
2022-11-09T04:52:08.595Z,4.55
2022-11-09T04:54:35.880Z,4.47
2022-11-09T04:57:03.243Z,4.70
2022-11-09T04:59:30.544Z,4.35
2022-11-09T05:01:57.831Z,4.00
2022-11-09T05:04:25.306Z,4.70
2022-11-09T05:06:52.582Z,5.53
2022-11-09T05:09:19.899Z,4.80
2022-11-09T05:11:47.184Z,4.70
2022-11-09T05:14:14.783Z,5.22
2022-11-09T05:16:42.181Z,4.80
2022-11-09T05:19:09.724Z,4.82
2022-11-09T05:21:37.187Z,4.22
2022-11-09T05:24:04.899Z,4.60
2022-11-09T05:26:35.104Z,4.70
2022-11-09T05:29:04.940Z,5.28
2022-11-09T05:31:32.632Z,4.18
2022-11-09T05:34:00.885Z,5.00
2022-11-09T05:36:30.455Z,4.03
2022-11-09T05:38:58.411Z,5.00
2022-11-09T05:41:26.649Z,4.50
2022-11-09T05:43:54.103Z,5.43
2022-11-09T05:46:21.434Z,4.45
2022-11-09T05:48:48.746Z,4.72
2022-11-09T05:51:16.368Z,5.47
2022-11-09T05:53:46.782Z,5.10
2022-11-09T05:56:15.094Z,4.68
2022-11-09T05:58:43.091Z,4.90
2022-11-09T06:01:13.292Z,4.20
2022-11-09T06:03:42.552Z,5.72
2022-11-09T06:06:12.038Z,4.88
2022-11-09T06:08:39.554Z,5.28
2022-11-09T06:11:09.718Z,5.00
2022-11-09T06:13:37.605Z,4.70
2022-11-09T06:16:06.203Z,4.95
2022-11-09T06:18:35.906Z,4.63
2022-11-09T06:21:04.976Z,4.80
2022-11-09T06:23:33.462Z,3.85
2022-11-09T06:26:09.998Z,4.05
2022-11-09T06:29:02.544Z,5.60
2022-11-09T06:31:30.086Z,5.53
2022-11-09T06:33:57.563Z,5.22
2022-11-09T06:36:25.000Z,4.82
2022-11-09T06:38:53.364Z,5.25
2022-11-09T06:41:20.841Z,4.25
2022-11-09T06:43:49.507Z,4.55
2022-11-09T06:46:17.544Z,4.93
2022-11-09T06:48:44.837Z,4.38
2022-11-09T06:51:12.760Z,4.68
2022-11-09T06:53:41.426Z,5.43
2022-11-09T06:56:09.525Z,4.10
2022-11-09T06:58:37.743Z,6.00
2022-11-09T07:01:10.716Z,4.57
2022-11-09T07:03:38.807Z,4.60
2022-11-09T07:06:08.255Z,3.90
2022-11-09T07:08:36.644Z,3.97
2022-11-09T07:11:12.052Z,4.68
2022-11-09T07:13:40.187Z,4.13
2022-11-09T07:16:08.221Z,3.72
2022-11-09T07:18:35.500Z,4.45
2022-11-09T07:21:08.760Z,5.22
2022-11-09T07:23:40.978Z,4.10
2022-11-09T07:26:08.478Z,4.20
2022-11-09T07:28:36.086Z,4.40
2022-11-09T07:31:03.605Z,3.30
2022-11-09T07:33:33.216Z,4.20
2022-11-09T07:36:02.866Z,3.75
2022-11-09T07:38:30.525Z,4.97
2022-11-09T07:41:02.033Z,3.55
2022-11-09T07:43:30.150Z,4.13
2022-11-09T07:45:59.103Z,4.20
2022-11-09T07:48:26.378Z,3.90
2022-11-09T07:50:53.891Z,3.67
2022-11-09T07:53:21.760Z,4.07
2022-11-09T07:56:01.082Z,5.03
2022-11-09T07:58:28.914Z,3.78
2022-11-09T08:00:56.929Z,3.50
2022-11-09T08:03:26.358Z,4.13
2022-11-09T08:05:56.386Z,4.35
2022-11-09T08:08:23.683Z,3.33
2022-11-09T08:10:51.551Z,3.55
2022-11-09T08:13:20.163Z,3.83
2022-11-09T08:15:47.884Z,4.43
2022-11-09T08:18:18.546Z,4.28
2022-11-09T08:20:46.748Z,4.15
2022-11-09T08:23:15.766Z,4.82
2022-11-09T08:25:43.868Z,4.68
2022-11-09T08:28:14.680Z,4.53
2022-11-09T08:30:44.873Z,3.85
2022-11-09T08:33:13.368Z,4.72
2022-11-09T08:35:40.715Z,3.40
2022-11-09T08:38:08.020Z,4.75
2022-11-09T08:40:35.405Z,4.47
2022-11-09T08:43:06.213Z,5.88
2022-11-09T08:45:36.103Z,4.30
2022-11-09T08:48:04.329Z,4.10
2022-11-09T08:50:34.409Z,4.30
2022-11-09T08:53:03.467Z,4.13
2022-11-09T08:55:31.341Z,3.92
2022-11-09T08:58:00.782Z,4.15
2022-11-09T09:00:29.052Z,3.70
2022-11-09T09:02:56.675Z,4.65
2022-11-09T09:05:24.188Z,4.90
2022-11-09T09:07:51.694Z,4.35
2022-11-09T09:10:19.040Z,5.18
2022-11-09T09:12:46.600Z,3.92
2022-11-09T09:15:13.908Z,5.18
2022-11-09T09:17:41.325Z,5.35
2022-11-09T09:20:09.201Z,5.22
2022-11-09T09:22:36.772Z,4.28
2022-11-09T09:25:04.848Z,4.57
2022-11-09T09:27:32.310Z,4.00
2022-11-09T09:30:00.102Z,4.28
2022-11-09T09:32:27.696Z,4.70
2022-11-09T09:34:54.974Z,5.03
2022-11-09T09:37:22.403Z,4.32
2022-11-09T09:39:49.668Z,3.35
2022-11-09T09:42:20.985Z,3.85
2022-11-09T09:45:05.692Z,3.40
2022-11-09T09:48:20.105Z,4.57
2022-11-09T09:50:52.270Z,4.53
2022-11-09T09:53:37.509Z,4.18
2022-11-09T09:56:26.797Z,3.78
2022-11-09T09:59:00.605Z,3.85
2022-11-09T10:01:43.167Z,4.20
2022-11-09T10:04:22.999Z,4.75
2022-11-09T10:07:18.887Z,4.20
2022-11-09T10:10:16.674Z,3.85
2022-11-09T10:12:59.211Z,4.22
2022-11-09T10:16:00.852Z,3.97
2022-11-09T10:19:09.441Z,3.80
2022-11-09T10:22:17.319Z,4.05
2022-11-09T10:28:01.213Z,3.78
2022-11-09T10:30:29.585Z,4.05
2022-11-09T10:33:09.465Z,3.97
2022-11-09T10:36:09.748Z,3.65
2022-11-09T10:38:43.657Z,3.72
2022-11-09T10:41:39.455Z,3.60
2022-11-09T10:44:25.310Z,3.40
2022-11-09T10:47:14.732Z,3.40
2022-11-09T10:50:24.868Z,3.22
2022-11-09T10:53:22.664Z,3.38
2022-11-09T10:56:21.743Z,2.63
2022-11-09T10:59:31.555Z,2.90
2022-11-09T11:02:47.595Z,2.60
2022-11-09T11:05:34.084Z,3.00
2022-11-09T11:08:33.303Z,3.53
2022-11-09T11:11:33.669Z,3.50
2022-11-09T11:14:33.126Z,3.00
2022-11-09T11:17:36.007Z,4.07
2022-11-09T11:20:37.032Z,3.22
2022-11-09T11:23:25.784Z,3.22
2022-11-09T11:26:41.647Z,3.67
2022-11-09T11:30:01.469Z,3.25
2022-11-09T11:32:50.432Z,3.38
2022-11-09T11:35:45.647Z,3.50
2022-11-09T11:38:57.535Z,3.22
2022-11-09T11:42:23.546Z,3.67
2022-11-09T11:45:42.930Z,3.80
2022-11-09T11:48:47.021Z,2.90
2022-11-09T11:51:50.324Z,2.92
2022-11-09T11:55:06.175Z,4.20
2022-11-09T11:58:34.597Z,4.00
2022-11-09T12:02:22.135Z,4.38
2022-11-09T12:06:09.196Z,3.13
2022-11-09T12:09:24.110Z,3.25
2022-11-09T12:12:56.720Z,3.20
2022-11-09T12:16:21.328Z,3.28
2022-11-09T12:19:35.384Z,3.92
2022-11-09T12:22:50.806Z,2.75
2022-11-09T12:25:57.532Z,3.25
2022-11-09T12:29:13.777Z,3.42
2022-11-09T12:32:38.705Z,3.72
2022-11-09T12:35:44.423Z,2.70
2022-11-09T12:38:36.722Z,2.55
2022-11-09T12:44:36.021Z,4.07
2022-11-09T12:47:29.335Z,3.22
2022-11-09T12:50:19.291Z,3.40
2022-11-09T12:53:06.153Z,3.47
2022-11-09T12:56:15.272Z,3.80
2022-11-09T12:59:48.735Z,3.45
2022-11-09T13:02:52.934Z,3.67
2022-11-09T13:05:39.540Z,4.07
2022-11-09T13:08:31.589Z,4.28
2022-11-09T13:11:27.995Z,3.65
2022-11-09T13:14:43.712Z,4.45
2022-11-09T13:18:18.959Z,3.72
2022-11-09T13:21:43.405Z,4.47
2022-11-09T13:24:56.184Z,3.95
2022-11-09T13:27:44.692Z,4.47
2022-11-09T13:30:40.756Z,4.53
2022-11-09T13:33:28.348Z,3.25
2022-11-09T13:36:17.953Z,4.68
2022-11-09T13:39:31.696Z,4.70
2022-11-09T13:42:36.344Z,4.32
2022-11-09T13:45:29.039Z,4.22
2022-11-09T13:48:27.780Z,3.45
2022-11-09T13:51:43.724Z,4.45
2022-11-09T13:54:30.857Z,4.68
2022-11-09T13:57:16.836Z,4.50
2022-11-09T14:00:05.463Z,5.10
2022-11-09T14:03:29.988Z,5.60
2022-11-09T14:06:15.636Z,4.20
2022-11-09T14:09:02.842Z,4.50
2022-11-09T14:12:14.187Z,4.57
2022-11-09T14:15:35.094Z,4.72
2022-11-09T14:18:50.838Z,5.32
2022-11-09T14:21:54.601Z,4.85
2022-11-09T14:24:40.626Z,4.97
2022-11-09T14:27:26.592Z,5.68
2022-11-09T14:30:22.318Z,4.88
2022-11-09T14:33:26.107Z,5.95
2022-11-09T14:36:13.804Z,4.80
2022-11-09T14:39:14.658Z,5.50
2022-11-09T14:42:01.326Z,6.00
2022-11-09T14:44:47.730Z,4.68
2022-11-09T14:47:37.160Z,6.43
2022-11-09T14:50:26.755Z,5.32
2022-11-09T14:53:22.719Z,6.40
2022-11-09T14:56:12.975Z,5.55
2022-11-09T14:58:59.118Z,5.75
2022-11-09T15:02:21.807Z,5.97
2022-11-09T15:05:07.817Z,5.43
2022-11-09T15:07:53.962Z,5.95
2022-11-09T15:10:39.679Z,5.47
2022-11-09T15:13:37.851Z,5.43
2022-11-09T15:16:29.329Z,5.07
2022-11-09T15:19:30.191Z,6.82
2022-11-09T15:22:41.084Z,5.78
2022-11-09T15:26:02.169Z,6.10
2022-11-09T15:28:49.092Z,6.30
2022-11-09T15:31:35.167Z,6.60
2022-11-09T15:34:24.262Z,5.65
2022-11-09T15:37:46.598Z,7.10
2022-11-09T15:40:32.128Z,5.13
2022-11-09T15:43:17.898Z,5.25
2022-11-09T15:46:04.227Z,5.57
2022-11-09T15:48:50.306Z,6.25
2022-11-09T15:51:36.345Z,4.80
2022-11-09T15:54:23.748Z,5.47
2022-11-09T15:57:15.739Z,6.57
2022-11-09T16:00:03.326Z,6.38
2022-11-09T16:02:49.571Z,5.93
2022-11-09T16:05:35.780Z,6.13
2022-11-09T16:08:21.988Z,7.15
2022-11-09T16:11:09.589Z,6.47
2022-11-09T16:13:55.450Z,6.47
2022-11-09T16:16:41.286Z,5.80
2022-11-09T16:19:27.195Z,6.90
2022-11-09T16:22:12.978Z,6.55
2022-11-09T16:24:59.302Z,6.65
2022-11-09T16:27:50.567Z,6.75
2022-11-09T16:30:38.870Z,6.57
2022-11-09T16:33:26.236Z,7.30
2022-11-09T16:36:17.129Z,5.60
2022-11-09T16:39:09.320Z,6.45
2022-11-09T16:41:55.268Z,5.22
2022-11-09T16:44:43.236Z,7.07
2022-11-09T16:47:29.044Z,6.93
2022-11-09T16:50:15.205Z,6.93
2022-11-09T16:53:01.443Z,6.93
2022-11-09T16:55:47.355Z,7.15
2022-11-09T16:58:33.428Z,6.63
2022-11-09T17:01:23.465Z,6.63
2022-11-09T17:04:09.735Z,5.78
2022-11-09T17:06:55.757Z,6.75
2022-11-09T17:09:41.747Z,5.45
2022-11-09T17:12:30.332Z,6.78
2022-11-09T17:15:17.099Z,7.05
2022-11-09T17:18:03.085Z,6.15
2022-11-09T17:20:50.697Z,6.05
2022-11-09T17:23:36.859Z,7.00
2022-11-09T17:26:23.814Z,5.90
2022-11-09T17:29:09.591Z,6.13
2022-11-09T17:31:55.383Z,5.20
2022-11-09T17:34:41.598Z,5.68
2022-11-09T17:37:28.535Z,5.97
2022-11-09T17:40:14.316Z,5.85
2022-11-09T17:43:00.242Z,4.90
2022-11-09T17:45:46.112Z,6.57
2022-11-09T17:48:33.302Z,6.63
2022-11-09T17:51:20.074Z,5.35
2022-11-09T17:54:05.951Z,5.72
2022-11-09T17:56:51.571Z,6.05
2022-11-09T17:59:37.689Z,5.70
2022-11-09T18:02:23.532Z,6.18
2022-11-09T18:05:11.063Z,5.32
2022-11-09T18:07:56.763Z,4.65
2022-11-09T18:10:44.345Z,4.97
2022-11-09T18:13:30.318Z,5.47
2022-11-09T18:16:19.171Z,5.60
2022-11-09T18:19:06.124Z,5.57
2022-11-09T18:21:51.676Z,4.57
2022-11-09T18:24:37.595Z,5.03
2022-11-09T18:27:28.986Z,4.95
2022-11-09T18:30:17.169Z,5.05
2022-11-09T18:33:03.464Z,5.05
2022-11-09T18:36:05.040Z,4.97
2022-11-09T18:38:53.937Z,5.10
2022-11-09T18:41:39.603Z,4.65
2022-11-09T18:44:25.503Z,4.35
2022-11-09T18:47:13.727Z,4.80
2022-11-09T18:49:59.567Z,4.72
2022-11-09T18:52:45.870Z,4.72
2022-11-09T18:55:31.609Z,4.38
2022-11-09T18:58:18.625Z,4.63
2022-11-09T19:01:06.383Z,4.40
2022-11-09T19:03:56.448Z,4.00
2022-11-09T19:06:45.819Z,4.07
2022-11-09T19:09:35.490Z,4.75
2022-11-09T19:12:21.683Z,4.80
2022-11-09T19:15:07.895Z,5.15
2022-11-09T19:17:54.371Z,4.00
2022-11-09T19:20:40.383Z,4.78
2022-11-09T19:23:31.243Z,5.25
2022-11-09T19:26:20.953Z,5.22
2022-11-09T19:29:07.881Z,5.82
2022-11-09T19:31:55.009Z,4.47
2022-11-09T19:34:42.832Z,5.97
2022-11-09T19:37:29.041Z,4.80
2022-11-09T19:40:15.198Z,4.15
2022-11-09T19:43:01.119Z,4.45
2022-11-09T19:45:46.859Z,5.20
2022-11-09T19:48:35.014Z,4.03
2022-11-09T19:51:21.196Z,4.18
2022-11-09T19:54:07.879Z,5.50
2022-11-09T19:56:54.080Z,5.57
2022-11-09T19:59:39.967Z,4.65
2022-11-09T20:02:25.871Z,4.93
2022-11-09T20:05:11.739Z,4.80
2022-11-09T20:07:57.847Z,5.57
2022-11-09T20:10:43.710Z,4.70
2022-11-09T20:13:29.629Z,3.92
2022-11-09T20:16:15.215Z,4.53
2022-11-09T20:19:03.091Z,6.07
2022-11-09T20:21:49.714Z,3.67
2022-11-09T20:24:35.476Z,5.25
2022-11-09T20:27:21.758Z,6.15
2022-11-09T20:30:08.204Z,5.43
2022-11-09T20:32:54.082Z,5.47
2022-11-09T20:35:45.725Z,4.90
2022-11-09T20:38:32.911Z,5.18
2022-11-09T20:41:22.940Z,5.10
2022-11-09T20:44:11.187Z,5.13
2022-11-09T20:46:57.299Z,5.60
2022-11-09T20:49:43.341Z,4.43
2022-11-09T20:52:29.315Z,5.30
2022-11-09T20:55:15.398Z,5.63
2022-11-09T20:58:01.184Z,4.28
2022-11-09T21:00:47.506Z,4.93
2022-11-09T21:03:34.778Z,5.10
2022-11-09T21:06:21.388Z,5.25
2022-11-09T21:09:07.372Z,5.28
2022-11-09T21:12:11.622Z,5.10
2022-11-09T21:14:57.442Z,4.78
2022-11-09T21:17:43.325Z,5.28
2022-11-09T21:20:29.193Z,5.22
2022-11-09T21:23:35.659Z,4.90
2022-11-09T21:26:40.425Z,5.00
2022-11-09T21:29:44.984Z,4.45
2022-11-09T21:32:30.792Z,5.68
2022-11-09T21:35:16.877Z,4.80
2022-11-09T21:38:02.551Z,4.90
2022-11-09T21:40:49.220Z,4.95
2022-11-09T21:43:34.806Z,4.60
2022-11-09T21:46:21.453Z,5.22
2022-11-09T21:49:08.763Z,6.07
2022-11-09T21:51:54.581Z,4.72
2022-11-09T21:54:40.816Z,5.35
2022-11-09T21:57:26.897Z,4.50
2022-11-09T22:00:13.832Z,5.15
2022-11-09T22:02:59.533Z,4.78
2022-11-09T22:05:45.353Z,5.32
2022-11-09T22:08:31.307Z,4.05
2022-11-09T22:11:20.280Z,5.18
2022-11-09T22:14:24.696Z,6.28
2022-11-09T22:17:10.634Z,4.93
2022-11-09T22:20:15.534Z,4.97
2022-11-09T22:23:06.003Z,5.35
2022-11-09T22:25:51.959Z,4.38
2022-11-09T22:28:37.792Z,5.10
2022-11-09T22:31:24.100Z,5.57
2022-11-09T22:34:10.024Z,5.40
2022-11-09T22:36:56.047Z,5.88
2022-11-09T22:39:45.976Z,4.35
2022-11-09T22:42:33.452Z,5.37
2022-11-09T22:45:19.466Z,5.10
2022-11-09T22:48:05.302Z,5.35
2022-11-09T22:50:51.453Z,5.72
2022-11-09T22:53:37.366Z,4.80
2022-11-09T22:56:23.266Z,4.30
2022-11-09T22:59:09.582Z,4.32
2022-11-09T23:01:55.593Z,5.65
2022-11-09T23:04:41.431Z,3.78
2022-11-09T23:07:27.426Z,4.60
2022-11-09T23:10:13.019Z,4.97
2022-11-09T23:12:59.858Z,4.63
2022-11-09T23:16:03.674Z,3.97
2022-11-09T23:18:56.007Z,4.68
2022-11-09T23:21:42.312Z,4.13
2022-11-09T23:24:46.546Z,4.32
2022-11-09T23:27:32.535Z,4.15
2022-11-09T23:30:19.022Z,4.28
2022-11-09T23:33:05.397Z,4.40
2022-11-09T23:35:51.162Z,3.22
2022-11-09T23:38:38.542Z,4.63
2022-11-09T23:41:24.407Z,4.45
2022-11-09T23:44:10.503Z,5.35
2022-11-09T23:46:56.448Z,5.22
2022-11-09T23:49:42.401Z,3.28
2022-11-09T23:52:28.289Z,4.30
2022-11-09T23:55:14.330Z,4.03
2022-11-09T23:58:04.855Z,4.18
